Jiu Hua San — 9VBK2 — position and weather

sailwx.info

Track history (hours):
 
Tides and Currents Weather Stations Pressure Air Temp Water Temp Dewpoint Dewpoint Depression Visibility Wind Speed Wind Dir Waves Ship Positions

Jiu Hua San

Last reported at 2016-Jul-01 01:13 UTC. Time now 2016-Jul-01 11:47 UTC.
Position N 30°05' E 121°57'.

Length 333 m; draft 19.9 m.

Type: Ship. MMSI: 565914000.

Date/timePositionNaut miles runAvg speedWind from/ knotsBaromVisibWave heightAir tempDewpointWater temp
2016-Jul-01 01:13N 30°05' E 121°57'1 0.7
2016-Jul-01 00:30N 30°04' E 121°57'7 7.0
2016-Jun-30 23:33N 29°58' E 121°60'1111.3
2016-Jun-30 22:33N 29°53' E 122°11'1212.1
2016-Jun-30 21:33N 29°44' E 122°21'9 9.3
2016-Jun-30 20:33N 29°41' E 122°31'7 6.5
2016-Jun-30 19:32N 29°41' E 122°38'1 0.5
2016-Jun-30 18:21N 29°41' E 122°39'0 0.1
2016-Jun-30 09:30N 29°41' E 122°39'0 0.1
2016-Jun-30 07:18N 29°41' E 122°38'3 3.3
2016-Jun-30 06:30N 29°41' E 122°36'5 4.8
2016-Jun-30 05:32N 29°36' E 122°35'  
2016-Jun-23 09:24N 01°16' E 104°12'8 6.3
2016-Jun-23 08:12N 01°16' E 104°05'2 2.5
2016-Jun-23 07:32N 01°15' E 104°03'17 8.6
2016-Jun-23 05:33N 01°10' E 103°47'8711.8
2016-Jun-22 22:08N 01°47' E 102°28'712.3
2016-Jun-22 21:33N 01°50' E 102°21'  
Track history (hours):
 
Tides and Currents Weather Stations Pressure Air Temp Water Temp Dewpoint Dewpoint Depression Visibility Wind Speed Wind Dir Waves Ship Positions

Jiu Hua San

Last reported at 2016-Jul-01 01:13 UTC. Time now 2016-Jul-01 11:47 UTC.
Position N 30°05' E 121°57'.

Length 333 m; draft 19.9 m.

Type: Ship. MMSI: 565914000.

Date/timePositionNaut miles runAvg speedWind from/ knotsBaromVisibWave heightAir tempDewpointWater temp
2016-Jul-01 01:13N 30°05' E 121°57'1 0.7
2016-Jul-01 00:30N 30°04' E 121°57'7 7.0
2016-Jun-30 23:33N 29°58' E 121°60'1111.3
2016-Jun-30 22:33N 29°53' E 122°11'1212.1
2016-Jun-30 21:33N 29°44' E 122°21'9 9.3
2016-Jun-30 20:33N 29°41' E 122°31'7 6.5
2016-Jun-30 19:32N 29°41' E 122°38'1 0.5
2016-Jun-30 18:21N 29°41' E 122°39'0 0.1
2016-Jun-30 09:30N 29°41' E 122°39'0 0.1
2016-Jun-30 07:18N 29°41' E 122°38'3 3.3
2016-Jun-30 06:30N 29°41' E 122°36'5 4.8
2016-Jun-30 05:32N 29°36' E 122°35'  
2016-Jun-23 09:24N 01°16' E 104°12'8 6.3
2016-Jun-23 08:12N 01°16' E 104°05'2 2.5
2016-Jun-23 07:32N 01°15' E 104°03'17 8.6
2016-Jun-23 05:33N 01°10' E 103°47'8711.8
2016-Jun-22 22:08N 01°47' E 102°28'712.3
2016-Jun-22 21:33N 01°50' E 102°21'  

Dump ship's entire track history